Time;durP1;ratioP1;P1;durP2;ratioP2;P2;SDS_P1;SDS_P2;PMS_P1;PMS_P2;Temp;Humidity;BMP_temperature;BMP_pressure;BME280_temperature;BME280_humidity;BME280_pressure;Samples;Min_cycle;Max_cycle;Signal;HPM_P1;HPM_P2
2023/08/01 00:00:47;;;;;;;8.30;4.70;;;17.70;99.90;;;;;;4992339;28;21023;-69
2023/08/01 00:03:13;;;;;;;5.20;4.70;;;17.70;99.90;;;;;;4992429;28;20234;-68
2023/08/01 00:05:44;;;;;;;8.03;5.53;;;17.70;99.90;;;;;;4991122;28;20198;-69
2023/08/01 00:08:11;;;;;;;5.60;5.10;;;17.70;99.90;;;;;;4991103;28;20509;-68
2023/08/01 00:10:37;;;;;;;5.53;4.97;;;17.60;99.90;;;;;;4991791;28;20557;-68
2023/08/01 00:13:02;;;;;;;7.67;4.93;;;17.50;99.90;;;;;;4991797;28;20510;-68
2023/08/01 00:15:28;;;;;;;6.67;5.90;;;17.40;99.90;;;;;;4992972;28;20627;-68
2023/08/01 00:17:53;;;;;;;5.23;4.60;;;17.40;99.90;;;;;;4990900;28;20202;-68
2023/08/01 00:20:19;;;;;;;5.77;5.23;;;17.40;99.90;;;;;;4990843;28;20184;-68
2023/08/01 00:22:44;;;;;;;6.07;5.03;;;17.40;99.90;;;;;;4992670;28;20184;-68
2023/08/01 00:25:10;;;;;;;6.50;5.07;;;17.30;99.90;;;;;;4991971;28;20245;-68
2023/08/01 00:27:36;;;;;;;7.37;5.53;;;17.30;99.90;;;;;;4991580;28;20261;-68
2023/08/01 00:30:01;;;;;;;8.80;6.73;;;17.30;99.90;;;;;;4989460;28;20199;-68
2023/08/01 00:32:27;;;;;;;6.37;5.53;;;17.40;99.90;;;;;;4992439;28;20199;-68
2023/08/01 00:34:52;;;;;;;6.70;5.40;;;17.40;99.90;;;;;;4991351;28;20259;-68
2023/08/01 00:37:18;;;;;;;5.37;4.60;;;17.40;99.90;;;;;;4990928;28;20549;-68
2023/08/01 00:39:43;;;;;;;5.80;5.17;;;17.40;99.90;;;;;;4992755;28;20184;-68
2023/08/01 00:42:09;;;;;;;5.27;4.77;;;17.40;99.90;;;;;;4992193;28;20221;-68
2023/08/01 00:44:34;;;;;;;5.90;5.20;;;17.50;99.90;;;;;;4993947;28;20191;-68
2023/08/01 00:47:00;;;;;;;4.87;4.47;;;17.50;99.90;;;;;;4990230;28;20207;-68
2023/08/01 00:49:26;;;;;;;8.27;5.53;;;17.60;99.90;;;;;;4991110;28;20176;-68
2023/08/01 00:51:52;;;;;;;9.17;6.00;;;17.60;99.90;;;;;;4990669;28;20217;-68
2023/08/01 00:54:17;;;;;;;6.07;5.30;;;17.70;99.90;;;;;;4989865;28;20583;-68
2023/08/01 00:56:44;;;;;;;6.20;5.60;;;17.70;99.90;;;;;;4991796;28;20469;-68
2023/08/01 00:59:10;;;;;;;5.10;4.40;;;17.80;99.90;;;;;;4991007;28;20653;-68
2023/08/01 01:01:36;;;;;;;5.90;4.77;;;17.70;99.90;;;;;;4990492;28;20478;-68
2023/08/01 01:04:01;;;;;;;6.97;6.27;;;17.80;99.90;;;;;;4991483;28;20184;-68
2023/08/01 01:06:48;;;;;;;6.73;4.83;;;17.80;99.90;;;;;;4990853;28;20649;-68
2023/08/01 01:09:20;;;;;;;6.30;5.50;;;17.80;99.90;;;;;;4987242;28;20250;-68
2023/08/01 01:11:46;;;;;;;7.83;5.10;;;17.80;99.90;;;;;;4990448;28;20481;-68
2023/08/01 01:14:12;;;;;;;5.00;4.60;;;17.80;99.90;;;;;;4989689;28;20528;-68
2023/08/01 01:16:37;;;;;;;8.90;5.17;;;17.80;99.90;;;;;;4990532;28;20890;-68
2023/08/01 01:19:07;;;;;;;6.07;5.00;;;17.80;99.90;;;;;;4991530;28;20199;-68
2023/08/01 01:21:39;;;;;;;9.40;8.10;;;17.80;99.90;;;;;;4989846;28;20575;-68
2023/08/01 01:24:07;;;;;;;11.13;5.03;;;17.90;99.90;;;;;;4987151;28;20452;-68
2023/08/01 01:26:34;;;;;;;6.63;4.17;;;17.80;99.90;;;;;;4989236;28;20474;-68
2023/08/01 01:29:01;;;;;;;7.90;5.37;;;17.70;99.90;;;;;;4989858;28;20442;-68
2023/08/01 01:31:27;;;;;;;5.40;4.90;;;17.70;99.90;;;;;;4990549;28;20580;-68
2023/08/01 01:33:54;;;;;;;6.90;5.90;;;17.30;99.90;;;;;;4991220;28;20522;-67
2023/08/01 01:36:20;;;;;;;6.37;5.73;;;17.10;99.90;;;;;;4990335;28;20537;-68
2023/08/01 01:38:46;;;;;;;9.43;5.80;;;17.00;99.90;;;;;;4989731;28;20498;-68
2023/08/01 01:41:11;;;;;;;9.23;6.27;;;16.90;99.90;;;;;;4991208;28;20600;-68
2023/08/01 01:43:37;;;;;;;7.47;5.93;;;16.80;99.90;;;;;;4990539;28;20211;-68
2023/08/01 01:46:03;;;;;;;15.57;6.83;;;16.70;99.90;;;;;;4991370;28;20207;-68
2023/08/01 01:48:29;;;;;;;7.93;6.00;;;16.70;99.90;;;;;;4989151;28;21025;-68
2023/08/01 01:50:54;;;;;;;6.93;5.87;;;16.60;99.90;;;;;;4990369;28;20219;-67
2023/08/01 01:53:20;;;;;;;8.13;6.60;;;16.60;99.90;;;;;;4990200;28;20175;-68
2023/08/01 01:55:45;;;;;;;6.57;5.80;;;16.60;99.90;;;;;;4990742;28;20180;-67
2023/08/01 01:58:11;;;;;;;8.00;5.90;;;16.60;99.90;;;;;;4990754;28;20180;-67
2023/08/01 02:00:36;;;;;;;7.07;6.37;;;16.50;99.90;;;;;;4989012;28;20535;-68
2023/08/01 02:03:02;;;;;;;10.53;6.30;;;16.50;99.90;;;;;;4990689;28;20564;-68
2023/08/01 02:05:29;;;;;;;7.77;5.60;;;16.50;99.90;;;;;;4990196;28;20187;-67
2023/08/01 02:07:54;;;;;;;6.97;6.20;;;16.50;99.90;;;;;;4990149;28;20474;-68
2023/08/01 02:10:20;;;;;;;7.17;5.37;;;16.50;99.90;;;;;;4988003;28;20463;-68
2023/08/01 02:12:45;;;;;;;6.00;5.40;;;16.50;99.90;;;;;;4988037;28;20579;-67
2023/08/01 02:15:11;;;;;;;11.80;7.80;;;16.50;99.90;;;;;;4990485;28;20528;-68
2023/08/01 02:17:36;;;;;;;6.17;5.60;;;16.50;99.90;;;;;;4990705;28;20223;-67
2023/08/01 02:20:02;;;;;;;9.33;5.67;;;16.50;99.90;;;;;;4989665;28;20188;-67
2023/08/01 02:22:28;;;;;;;9.90;6.53;;;16.50;99.90;;;;;;4990108;28;20645;-66
2023/08/01 02:24:53;;;;;;;6.53;5.93;;;16.50;99.90;;;;;;4988788;28;20438;-67
2023/08/01 02:27:19;;;;;;;8.10;7.30;;;16.60;99.90;;;;;;4993172;28;20653;-67
2023/08/01 02:29:44;;;;;;;9.50;8.60;;;16.60;99.90;;;;;;4991808;28;20189;-67
2023/08/01 02:32:10;;;;;;;7.33;6.63;;;16.50;99.90;;;;;;4990901;28;20207;-67
2023/08/01 02:34:35;;;;;;;7.50;6.00;;;16.60;99.90;;;;;;4989388;28;20698;-67
2023/08/01 02:37:01;;;;;;;8.10;5.80;;;16.60;99.90;;;;;;4991293;28;20204;-67
2023/08/01 02:39:26;;;;;;;9.83;6.40;;;16.60;99.90;;;;;;4991027;28;20182;-67
2023/08/01 02:41:52;;;;;;;7.40;5.50;;;16.60;99.90;;;;;;4994407;28;20186;-67
2023/08/01 02:44:17;;;;;;;6.17;5.60;;;16.70;99.90;;;;;;4993973;28;20645;-67
2023/08/01 02:46:43;;;;;;;6.50;5.80;;;16.70;99.90;;;;;;4993589;28;20207;-67
2023/08/01 02:49:08;;;;;;;7.10;6.10;;;16.70;99.90;;;;;;4992651;28;20195;-67
2023/08/01 02:51:34;;;;;;;8.03;6.33;;;16.70;99.90;;;;;;4993423;28;22085;-67
2023/08/01 02:53:59;;;;;;;8.17;6.10;;;16.70;99.90;;;;;;4991930;28;20183;-67
2023/08/01 02:56:25;;;;;;;7.00;6.30;;;16.70;99.90;;;;;;4991275;28;20199;-67
2023/08/01 02:58:51;;;;;;;8.73;6.63;;;16.70;99.90;;;;;;4993230;28;20186;-67
2023/08/01 03:01:17;;;;;;;6.17;5.57;;;16.70;99.90;;;;;;4992870;28;20666;-67
2023/08/01 03:03:43;;;;;;;7.63;5.70;;;16.70;99.90;;;;;;4993308;28;20469;-67
2023/08/01 03:06:08;;;;;;;6.07;5.47;;;16.70;99.90;;;;;;4994720;28;20203;-67
2023/08/01 03:08:34;;;;;;;5.20;4.70;;;16.70;99.90;;;;;;4992670;28;20192;-67
2023/08/01 03:10:59;;;;;;;6.93;4.93;;;16.70;99.90;;;;;;4992787;28;20218;-67
2023/08/01 03:13:25;;;;;;;7.20;6.37;;;16.80;99.90;;;;;;4992842;28;20176;-67
2023/08/01 03:15:50;;;;;;;6.50;5.90;;;16.80;99.90;;;;;;4990697;28;20194;-67
2023/08/01 03:18:16;;;;;;;7.60;5.43;;;16.80;99.90;;;;;;4992358;28;20310;-67
2023/08/01 03:20:41;;;;;;;5.80;5.30;;;16.80;99.90;;;;;;4994353;28;20267;-67
2023/08/01 03:23:07;;;;;;;6.03;5.43;;;16.90;99.90;;;;;;4993308;28;20176;-67
2023/08/01 03:25:33;;;;;;;9.33;6.10;;;16.90;99.90;;;;;;4993338;28;20188;-67
2023/08/01 03:27:58;;;;;;;6.30;5.43;;;17.00;99.90;;;;;;4995789;28;20183;-67
2023/08/01 03:30:24;;;;;;;8.37;4.90;;;17.10;99.90;;;;;;4992130;28;20215;-68
2023/08/01 03:32:49;;;;;;;6.83;6.20;;;17.20;99.90;;;;;;4995390;28;20183;-67
2023/08/01 03:35:15;;;;;;;5.63;4.00;;;17.20;99.90;;;;;;4989022;28;20185;-67
2023/08/01 03:37:40;;;;;;;6.87;5.60;;;17.30;99.90;;;;;;4993837;28;20209;-68
2023/08/01 03:40:10;;;;;;;6.37;5.70;;;17.40;99.90;;;;;;4993263;28;20215;-68
2023/08/01 03:42:36;;;;;;;6.30;5.70;;;17.40;99.90;;;;;;4992226;28;20211;-67
2023/08/01 03:45:02;;;;;;;6.27;5.03;;;17.50;99.90;;;;;;4993232;28;20443;-68
2023/08/01 03:47:27;;;;;;;6.80;4.13;;;17.60;99.90;;;;;;4993756;28;20462;-67
2023/08/01 03:49:53;;;;;;;4.77;4.20;;;17.60;99.90;;;;;;4993035;28;20270;-68
2023/08/01 03:52:19;;;;;;;4.97;4.47;;;17.60;99.90;;;;;;4991818;28;20198;-67
2023/08/01 03:54:46;;;;;;;7.20;4.83;;;17.70;99.90;;;;;;4991406;28;20208;-68
2023/08/01 03:57:11;;;;;;;7.90;5.50;;;17.70;99.90;;;;;;4990011;28;20466;-67
2023/08/01 03:59:37;;;;;;;5.27;4.53;;;17.70;99.90;;;;;;4991569;28;20439;-68
2023/08/01 04:02:03;;;;;;;7.40;4.63;;;17.70;99.90;;;;;;4992961;28;20637;-67
2023/08/01 04:04:30;;;;;;;5.03;4.37;;;17.70;99.90;;;;;;4990904;28;20184;-67
2023/08/01 04:06:56;;;;;;;9.57;5.70;;;17.70;99.90;;;;;;4991825;28;20353;-67
2023/08/01 04:09:21;;;;;;;7.00;5.60;;;17.70;99.90;;;;;;4990243;28;21214;-67
2023/08/01 04:11:47;;;;;;;6.70;5.27;;;17.80;99.90;;;;;;4991960;28;20254;-67
2023/08/01 04:14:12;;;;;;;7.60;5.00;;;17.70;99.90;;;;;;4992544;28;20554;-67
2023/08/01 04:16:38;;;;;;;5.10;4.43;;;17.70;99.90;;;;;;4991703;28;20219;-67
2023/08/01 04:19:03;;;;;;;7.10;5.37;;;17.70;99.90;;;;;;4991346;28;20184;-67
2023/08/01 04:21:29;;;;;;;8.07;7.30;;;17.70;99.90;;;;;;4992681;28;20187;-67
2023/08/01 04:23:54;;;;;;;6.40;4.47;;;17.70;99.90;;;;;;4990645;28;20191;-67
2023/08/01 04:26:20;;;;;;;7.87;3.90;;;17.70;99.90;;;;;;4992964;28;20238;-67
2023/08/01 04:28:47;;;;;;;7.30;4.93;;;17.60;99.90;;;;;;4990307;28;20306;-67
2023/08/01 04:31:12;;;;;;;6.53;5.70;;;17.70;99.90;;;;;;4995461;28;20207;-68
2023/08/01 04:33:38;;;;;;;8.30;4.97;;;17.70;99.90;;;;;;4990059;28;20434;-67
2023/08/01 04:36:04;;;;;;;5.57;4.97;;;17.70;99.90;;;;;;4990684;28;20196;-67
2023/08/01 04:38:29;;;;;;;6.40;5.30;;;17.70;99.90;;;;;;4986044;28;20307;-67
2023/08/01 04:40:54;;;;;;;6.97;5.43;;;17.60;99.90;;;;;;4991026;28;20196;-67
2023/08/01 04:43:20;;;;;;;6.73;5.23;;;17.50;99.90;;;;;;4998912;28;20191;-67
2023/08/01 04:45:46;;;;;;;7.07;4.57;;;17.50;99.90;;;;;;4992182;28;20261;-67
2023/08/01 04:48:11;;;;;;;6.20;5.57;;;17.50;99.90;;;;;;4998372;28;20203;-67
2023/08/01 04:50:37;;;;;;;6.83;4.53;;;17.60;99.90;;;;;;4991047;28;20207;-67
2023/08/01 04:53:02;;;;;;;4.03;3.63;;;17.60;99.90;;;;;;4991718;28;20657;-68
2023/08/01 04:55:28;;;;;;;5.63;4.90;;;17.70;99.90;;;;;;4991322;28;20187;-68
2023/08/01 04:57:53;;;;;;;5.23;4.30;;;17.80;99.90;;;;;;4990565;28;20175;-68
2023/08/01 05:00:19;;;;;;;7.87;5.30;;;17.90;99.90;;;;;;4984166;28;20637;-67
2023/08/01 05:02:44;;;;;;;5.67;3.87;;;17.90;99.90;;;;;;4989730;28;20673;-67
2023/08/01 05:05:10;;;;;;;5.43;4.70;;;17.90;99.90;;;;;;4991697;28;20179;-68
2023/08/01 05:07:35;;;;;;;5.37;4.07;;;17.90;99.90;;;;;;4991998;28;20207;-69
2023/08/01 05:10:01;;;;;;;7.40;4.50;;;17.90;99.90;;;;;;4991404;28;20207;-68
2023/08/01 05:12:26;;;;;;;8.53;4.63;;;17.90;99.90;;;;;;4992295;28;20206;-67
2023/08/01 05:14:52;;;;;;;7.30;5.30;;;17.90;99.90;;;;;;4990549;28;20187;-68
2023/08/01 05:17:17;;;;;;;8.17;6.10;;;18.00;99.90;;;;;;4991467;28;20207;-68
2023/08/01 05:19:43;;;;;;;8.47;4.90;;;18.00;99.90;;;;;;4988797;28;20179;-67
2023/08/01 05:22:08;;;;;;;7.10;5.63;;;18.00;99.90;;;;;;4991139;28;20184;-68
2023/08/01 05:24:34;;;;;;;5.30;4.67;;;18.10;99.90;;;;;;4991134;28;20195;-68
2023/08/01 05:26:59;;;;;;;6.00;5.30;;;18.10;99.90;;;;;;4991345;28;20294;-68
2023/08/01 05:29:25;;;;;;;5.40;5.00;;;18.10;99.90;;;;;;4990236;28;20184;-68
2023/08/01 05:31:50;;;;;;;6.47;5.83;;;18.10;99.90;;;;;;4993228;28;20742;-68
2023/08/01 05:34:16;;;;;;;8.83;5.90;;;18.10;99.90;;;;;;4991989;28;20209;-68
2023/08/01 05:36:41;;;;;;;8.63;4.90;;;18.10;99.90;;;;;;4990209;28;20202;-68
2023/08/01 05:39:07;;;;;;;6.73;6.03;;;18.20;99.90;;;;;;4986714;28;20167;-68
2023/08/01 05:41:32;;;;;;;8.17;6.30;;;18.20;99.90;;;;;;4990154;28;20270;-68
2023/08/01 05:43:58;;;;;;;9.07;5.30;;;18.20;99.90;;;;;;4991018;28;20179;-68
2023/08/01 05:46:24;;;;;;;6.00;5.40;;;18.30;99.90;;;;;;4991150;28;20628;-68
2023/08/01 05:48:49;;;;;;;7.17;5.07;;;18.30;99.90;;;;;;4990701;28;20183;-68
2023/08/01 05:51:15;;;;;;;5.50;5.00;;;18.30;99.90;;;;;;4991130;28;20227;-68
2023/08/01 05:53:41;;;;;;;6.50;5.60;;;18.40;99.90;;;;;;4990830;28;20186;-68
2023/08/01 05:56:06;;;;;;;7.10;5.50;;;18.40;99.90;;;;;;4987667;28;20839;-68
2023/08/01 05:58:32;;;;;;;7.23;4.73;;;18.50;99.90;;;;;;4991160;28;20180;-68
2023/08/01 06:00:57;;;;;;;6.13;5.10;;;18.50;99.90;;;;;;4990674;28;20191;-68
2023/08/01 06:03:23;;;;;;;6.23;5.00;;;18.50;99.90;;;;;;4991068;28;20230;-68
2023/08/01 06:05:49;;;;;;;6.60;5.27;;;18.50;99.90;;;;;;4990072;28;20249;-68
2023/08/01 06:08:18;;;;;;;11.50;5.67;;;18.60;99.90;;;;;;4988983;28;20293;-68
2023/08/01 06:10:44;;;;;;;6.27;4.60;;;18.60;99.90;;;;;;4991339;28;20849;-68
2023/08/01 06:13:09;;;;;;;6.27;4.73;;;18.60;99.90;;;;;;4991631;28;20445;-68
2023/08/01 06:15:35;;;;;;;6.37;5.77;;;18.60;99.90;;;;;;4992418;28;20180;-68
2023/08/01 06:18:02;;;;;;;5.20;4.67;;;18.60;99.90;;;;;;4994557;28;21527;-68
2023/08/01 06:20:27;;;;;;;6.20;5.60;;;18.60;99.90;;;;;;4992473;28;21264;-67
2023/08/01 06:22:53;;;;;;;5.20;4.63;;;18.50;99.90;;;;;;4994308;28;20451;-68
2023/08/01 06:25:18;;;;;;;9.10;6.50;;;18.20;99.90;;;;;;4994665;28;20237;-67
2023/08/01 06:27:44;;;;;;;7.37;6.67;;;17.90;99.90;;;;;;4994623;28;20265;-68
2023/08/01 06:30:10;;;;;;;9.20;5.00;;;17.80;99.90;;;;;;4990461;28;20669;-67
2023/08/01 06:32:36;;;;;;;10.80;5.60;;;17.60;99.90;;;;;;4994736;28;20242;-67
2023/08/01 06:35:01;;;;;;;7.50;5.17;;;17.60;99.90;;;;;;4993887;28;20821;-69
2023/08/01 06:37:27;;;;;;;9.30;5.17;;;17.60;99.90;;;;;;4994592;28;20230;-68
2023/08/01 06:39:53;;;;;;;7.23;6.17;;;17.80;99.90;;;;;;4990088;28;20263;-68
2023/08/01 06:42:19;;;;;;;7.07;6.47;;;17.90;99.90;;;;;;4992328;28;20218;-68
2023/08/01 06:44:46;;;;;;;6.50;5.90;;;18.00;99.90;;;;;;4994677;28;20434;-68
2023/08/01 06:47:11;;;;;;;9.43;6.27;;;18.00;99.90;;;;;;4991022;28;20215;-68
2023/08/01 06:49:37;;;;;;;7.27;6.57;;;17.70;99.90;;;;;;4990495;28;20487;-68
2023/08/01 06:52:03;;;;;;;10.10;7.70;;;17.50;99.90;;;;;;4990357;28;20199;-68
2023/08/01 06:54:28;;;;;;;11.17;6.87;;;17.30;99.90;;;;;;4988926;28;20673;-68
2023/08/01 06:56:54;;;;;;;8.67;7.60;;;17.00;99.90;;;;;;4993476;28;20298;-68
2023/08/01 06:59:19;;;;;;;11.23;8.50;;;16.80;99.90;;;;;;4988677;28;20734;-68
2023/08/01 07:01:45;;;;;;;10.97;8.97;;;16.70;99.90;;;;;;4995740;28;20194;-68
2023/08/01 07:04:11;;;;;;;8.47;7.23;;;16.70;99.90;;;;;;4990820;28;20262;-68
2023/08/01 07:06:37;;;;;;;9.40;8.40;;;16.70;99.90;;;;;;4990310;28;20975;-68
2023/08/01 07:09:03;;;;;;;10.77;8.27;;;16.60;99.90;;;;;;4991938;28;20446;-68
2023/08/01 07:11:28;;;;;;;10.90;8.60;;;16.70;99.90;;;;;;4992732;28;20580;-68
2023/08/01 07:13:54;;;;;;;9.20;8.13;;;16.70;99.90;;;;;;4991959;28;20246;-68
2023/08/01 07:16:19;;;;;;;10.27;7.10;;;16.70;99.90;;;;;;4992227;28;20298;-69
2023/08/01 07:18:45;;;;;;;10.37;7.13;;;16.80;99.90;;;;;;4990986;28;20279;-68
2023/08/01 07:21:10;;;;;;;9.23;7.23;;;16.80;99.90;;;;;;4992276;28;20208;-69
2023/08/01 07:23:36;;;;;;;10.03;7.50;;;16.90;99.90;;;;;;4991188;28;20207;-68
2023/08/01 07:26:02;;;;;;;7.57;6.80;;;16.80;99.90;;;;;;4992222;28;20573;-68
2023/08/01 07:28:28;;;;;;;9.30;7.33;;;16.80;99.90;;;;;;4990640;28;20175;-68
2023/08/01 07:31:06;;;;;;;7.83;7.03;;;16.70;99.90;;;;;;4990335;28;20249;-68
2023/08/01 07:33:33;;;;;;;10.00;7.50;;;16.70;99.90;;;;;;4990093;28;20230;-68
2023/08/01 07:35:59;;;;;;;8.77;6.40;;;16.60;99.90;;;;;;4991584;28;20512;-68
2023/08/01 07:38:26;;;;;;;8.13;7.23;;;16.60;99.90;;;;;;4990917;28;20446;-67
2023/08/01 07:40:52;;;;;;;8.20;7.40;;;16.50;99.90;;;;;;4992789;28;20318;-68
2023/08/01 07:43:18;;;;;;;7.50;6.47;;;16.40;99.90;;;;;;4989705;28;20546;-67
2023/08/01 07:45:44;;;;;;;8.43;6.63;;;16.40;99.90;;;;;;4991664;28;20266;-67
2023/08/01 07:48:10;;;;;;;7.90;7.10;;;16.30;99.90;;;;;;4991593;28;20581;-67
2023/08/01 07:50:35;;;;;;;9.03;6.13;;;16.20;99.90;;;;;;4990487;28;21021;-70
2023/08/01 07:53:01;;;;;;;7.63;6.23;;;16.20;99.90;;;;;;4992230;28;20629;-68
2023/08/01 07:55:27;;;;;;;13.30;6.80;;;16.10;99.90;;;;;;4991827;28;20183;-68
2023/08/01 07:57:52;;;;;;;13.10;6.87;;;16.00;99.90;;;;;;4989609;28;20192;-68
2023/08/01 08:00:18;;;;;;;5.80;5.17;;;16.00;99.90;;;;;;4990721;28;20183;-68
2023/08/01 08:02:45;;;;;;;6.73;4.90;;;16.00;99.90;;;;;;4989461;28;20199;-68
2023/08/01 08:05:10;;;;;;;5.47;4.97;;;16.10;99.90;;;;;;4984539;28;20251;-68
2023/08/01 08:07:39;;;;;;;7.90;5.10;;;16.10;99.90;;;;;;4992149;28;20494;-68
2023/08/01 08:10:05;;;;;;;6.53;5.33;;;16.10;99.90;;;;;;4991843;28;20241;-68
2023/08/01 08:12:31;;;;;;;5.53;5.03;;;16.10;99.90;;;;;;4991911;28;20438;-68
2023/08/01 08:14:57;;;;;;;6.33;4.70;;;16.20;99.90;;;;;;4991133;28;20484;-68
2023/08/01 08:17:22;;;;;;;8.50;4.30;;;16.20;99.90;;;;;;4990488;28;20486;-68
2023/08/01 08:19:48;;;;;;;8.07;5.40;;;16.20;99.90;;;;;;4989587;28;20683;-68
2023/08/01 08:22:13;;;;;;;6.80;4.50;;;16.20;99.90;;;;;;4991621;28;20187;-68
2023/08/01 08:24:39;;;;;;;4.87;4.40;;;16.20;99.90;;;;;;4990704;28;20183;-67
2023/08/01 08:27:05;;;;;;;6.20;4.60;;;16.30;99.90;;;;;;4989019;28;20207;-68
2023/08/01 08:29:32;;;;;;;5.40;4.60;;;16.20;99.90;;;;;;4991689;28;20192;-68
2023/08/01 08:31:58;;;;;;;5.23;4.73;;;16.30;99.90;;;;;;4991471;28;20466;-68
2023/08/01 08:34:23;;;;;;;5.30;4.43;;;16.30;99.90;;;;;;4990912;28;20438;-67
2023/08/01 08:36:50;;;;;;;7.27;6.57;;;16.30;99.90;;;;;;4991104;28;20680;-68
2023/08/01 08:39:16;;;;;;;5.80;4.90;;;16.40;99.90;;;;;;4991405;28;20176;-68
2023/08/01 08:41:52;;;;;;;5.20;4.80;;;16.60;99.90;;;;;;4989851;28;20442;-68
2023/08/01 08:44:20;;;;;;;5.87;4.90;;;16.70;99.90;;;;;;4990652;28;20526;-68
2023/08/01 08:46:53;;;;;;;5.93;5.10;;;16.90;99.90;;;;;;4988105;28;20470;-67
2023/08/01 08:49:21;;;;;;;5.27;4.77;;;17.00;99.90;;;;;;4990607;28;20517;-67
2023/08/01 08:51:48;;;;;;;5.67;4.67;;;17.10;99.90;;;;;;4990828;28;20533;-67
2023/08/01 08:54:16;;;;;;;5.37;4.87;;;17.10;99.90;;;;;;4990132;28;20434;-67
2023/08/01 08:56:41;;;;;;;5.93;4.70;;;17.20;99.90;;;;;;4988107;28;20517;-67
2023/08/01 08:59:10;;;;;;;6.20;4.87;;;17.20;99.90;;;;;;4988241;28;20438;-67
2023/08/01 09:01:36;;;;;;;4.60;4.20;;;17.30;99.90;;;;;;4988897;28;20187;-67
2023/08/01 09:04:02;;;;;;;8.27;5.03;;;17.30;99.90;;;;;;4990859;28;20438;-67
2023/08/01 09:06:34;;;;;;;7.87;4.63;;;17.30;99.90;;;;;;4989850;28;20459;-67
2023/08/01 09:09:09;;;;;;;5.27;4.70;;;17.30;99.90;;;;;;4989885;28;20709;-67
2023/08/01 09:11:46;;;;;;;6.00;4.43;;;17.30;99.90;;;;;;4988976;28;20504;-67
2023/08/01 09:14:11;;;;;;;6.03;4.37;;;17.30;99.90;;;;;;4990708;28;20879;-67
2023/08/01 09:16:37;;;;;;;7.87;3.83;;;17.30;99.90;;;;;;4991429;28;20537;-67
2023/08/01 09:19:05;;;;;;;7.07;4.00;;;17.30;99.90;;;;;;4990155;28;20259;-67
2023/08/01 09:21:33;;;;;;;5.30;4.50;;;17.20;99.90;;;;;;4988507;28;20604;-67
2023/08/01 09:24:08;;;;;;;2.80;2.60;;;17.20;99.90;;;;;;4988995;28;20955;-67
2023/08/01 09:26:33;;;;;;;7.67;6.90;;;17.20;99.90;;;;;;4991692;28;20453;-67
2023/08/01 09:28:59;;;;;;;2.80;2.57;;;17.30;99.90;;;;;;4989483;28;20824;-67
2023/08/01 09:31:30;;;;;;;3.97;3.50;;;17.40;99.90;;;;;;4990994;28;20203;-67
2023/08/01 09:33:55;;;;;;;3.60;3.30;;;17.30;99.90;;;;;;4987803;28;20180;-67
2023/08/01 09:36:22;;;;;;;5.60;4.03;;;17.40;99.90;;;;;;4990364;28;21030;-67
2023/08/01 09:38:48;;;;;;;2.97;2.73;;;17.50;99.90;;;;;;4989771;28;20191;-67
2023/08/01 09:41:20;;;;;;;3.97;3.37;;;17.70;99.90;;;;;;4990239;28;20451;-67
2023/08/01 09:43:46;;;;;;;2.97;2.20;;;17.90;99.90;;;;;;4987536;28;20187;-67
2023/08/01 09:46:13;;;;;;;3.40;2.80;;;18.00;99.90;;;;;;4990062;28;20465;-68
2023/08/01 09:48:39;;;;;;;2.63;2.43;;;18.10;99.90;;;;;;4987790;28;20521;-67
2023/08/01 09:51:08;;;;;;;2.30;2.10;;;18.00;99.90;;;;;;4988681;28;20459;-67
2023/08/01 09:53:35;;;;;;;2.77;2.57;;;18.10;99.90;;;;;;4989561;28;20434;-66
2023/08/01 09:56:02;;;;;;;2.40;1.90;;;18.10;99.90;;;;;;4989331;28;20489;-67
2023/08/01 09:58:33;;;;;;;2.20;1.60;;;18.20;99.90;;;;;;4987821;28;20434;-67
2023/08/01 10:01:00;;;;;;;1.63;1.50;;;18.30;99.90;;;;;;4990724;28;20442;-68
2023/08/01 10:03:27;;;;;;;1.90;1.57;;;18.40;99.90;;;;;;4988573;28;20478;-67
2023/08/01 10:05:54;;;;;;;2.27;1.80;;;18.50;99.90;;;;;;4987059;28;20462;-68
2023/08/01 10:08:21;;;;;;;2.33;1.80;;;18.40;99.90;;;;;;4988770;28;20520;-67
2023/08/01 10:10:48;;;;;;;1.97;1.50;;;18.40;99.90;;;;;;4988569;28;20885;-68
2023/08/01 10:13:14;;;;;;;2.53;1.50;;;18.50;99.90;;;;;;4990942;28;20991;-68
2023/08/01 10:15:41;;;;;;;1.40;1.30;;;18.50;99.90;;;;;;4987083;28;20489;-68
2023/08/01 10:18:08;;;;;;;1.60;1.50;;;18.70;99.90;;;;;;4990754;28;20438;-68
2023/08/01 10:20:36;;;;;;;1.30;1.20;;;18.90;99.90;;;;;;4989336;28;20450;-68
2023/08/01 10:23:02;;;;;;;1.30;1.20;;;18.90;99.90;;;;;;4987997;28;20537;-68
2023/08/01 10:25:30;;;;;;;3.97;1.93;;;19.20;99.90;;;;;;4988287;28;20453;-68
2023/08/01 10:28:03;;;;;;;1.40;1.30;;;19.30;99.90;;;;;;4990029;28;20970;-68
2023/08/01 10:30:29;;;;;;;1.20;1.10;;;19.50;99.90;;;;;;4987897;28;21064;-67
2023/08/01 10:32:57;;;;;;;4.40;1.87;;;19.60;99.90;;;;;;4991164;28;20481;-68
2023/08/01 10:35:32;;;;;;;2.30;1.40;;;20.00;99.90;;;;;;4985820;28;20484;-68
2023/08/01 10:38:07;;;;;;;1.10;0.90;;;21.40;99.90;;;;;;4986766;28;20538;-67
2023/08/01 10:40:34;;;;;;;1.37;1.20;;;21.90;99.90;;;;;;4989170;28;20438;-69
2023/08/01 10:42:59;;;;;;;1.60;1.50;;;22.00;99.90;;;;;;4991920;28;20422;-69
2023/08/01 10:45:27;;;;;;;7.20;2.90;;;22.00;99.90;;;;;;4990647;28;21009;-69
2023/08/01 10:47:52;;;;;;;2.90;1.83;;;23.10;99.90;;;;;;4985961;28;20257;-66
2023/08/01 10:50:18;;;;;;;1.80;1.33;;;24.40;99.90;;;;;;4987134;28;20470;-66
2023/08/01 10:52:46;;;;;;;1.50;1.20;;;24.70;99.90;;;;;;4986604;28;20208;-67
2023/08/01 10:55:11;;;;;;;1.30;0.90;;;24.60;99.90;;;;;;4988759;28;20497;-66
2023/08/01 10:57:46;;;;;;;1.00;1.00;;;23.40;99.90;;;;;;4988709;28;20461;-67
2023/08/01 11:00:17;;;;;;;1.30;1.20;;;23.10;99.90;;;;;;4984596;28;20278;-66
2023/08/01 11:02:48;;;;;;;1.37;0.80;;;24.80;99.90;;;;;;4991626;28;20426;-67
2023/08/01 11:05:13;;;;;;;1.47;1.37;;;26.70;99.90;;;;;;4993188;28;20464;-67
2023/08/01 11:07:39;;;;;;;0.87;0.77;;;27.70;99.90;;;;;;4993453;28;20562;-68
2023/08/01 11:10:06;;;;;;;1.07;1.03;;;29.90;99.90;;;;;;4992048;28;20199;-67
2023/08/01 11:12:40;;;;;;;1.37;1.27;;;30.70;95.00;;;;;;4992323;28;20246;-67
2023/08/01 11:15:08;;;;;;;1.27;1.17;;;29.40;95.50;;;;;;4993081;28;20944;-67
2023/08/01 11:17:36;;;;;;;1.33;1.23;;;29.10;98.60;;;;;;4993083;28;20865;-68
2023/08/01 11:20:10;;;;;;;1.47;1.37;;;30.80;93.10;;;;;;4993092;28;20864;-67
2023/08/01 11:22:38;;;;;;;1.53;1.43;;;30.00;90.10;;;;;;4993910;28;20468;-68
2023/08/01 11:25:04;;;;;;;2.10;1.90;;;29.70;88.10;;;;;;4991924;28;20999;-68
2023/08/01 11:27:29;;;;;;;1.63;1.53;;;29.30;91.70;;;;;;4990520;28;20466;-68
2023/08/01 11:29:55;;;;;;;1.20;1.10;;;29.70;88.70;;;;;;4991609;28;20804;-68
2023/08/01 11:32:32;;;;;;;1.43;1.33;;;30.70;82.70;;;;;;4990733;28;20664;-68
2023/08/01 11:34:57;;;;;;;1.60;1.50;;;30.10;82.20;;;;;;4992492;28;20434;-68
2023/08/01 11:37:25;;;;;;;1.43;1.33;;;30.30;80.30;;;;;;4992409;28;20978;-68
2023/08/01 11:39:51;;;;;;;2.60;1.80;;;30.80;78.30;;;;;;4991667;28;20188;-67
2023/08/01 11:42:17;;;;;;;1.73;1.63;;;30.10;76.60;;;;;;4993041;28;20986;-68
2023/08/01 11:44:46;;;;;;;2.00;1.40;;;28.90;80.00;;;;;;4992432;28;20446;-67
2023/08/01 11:47:14;;;;;;;1.77;1.67;;;30.10;78.00;;;;;;4990034;28;20235;-67
2023/08/01 11:49:44;;;;;;;2.07;1.47;;;30.40;70.40;;;;;;4990789;28;20479;-68
2023/08/01 11:52:09;;;;;;;1.93;1.83;;;31.00;71.50;;;;;;4982484;28;20546;-68
2023/08/01 11:54:45;;;;;;;3.23;1.80;;;31.70;67.60;;;;;;4990888;28;21023;-68
2023/08/01 11:57:10;;;;;;;1.97;1.77;;;33.50;62.90;;;;;;4988410;28;20620;-68
2023/08/01 11:59:49;;;;;;;3.27;1.30;;;33.50;60.70;;;;;;4989884;28;20442;-68
2023/08/01 12:02:26;;;;;;;1.87;1.77;;;32.10;64.50;;;;;;4991855;28;20210;-68
2023/08/01 12:04:52;;;;;;;1.60;1.50;;;30.80;67.10;;;;;;4993414;28;20516;-68
2023/08/01 12:07:18;;;;;;;1.50;1.40;;;31.20;66.30;;;;;;4992846;28;20527;-68
2023/08/01 12:09:54;;;;;;;1.60;1.50;;;31.10;66.30;;;;;;4988200;28;20460;-68
2023/08/01 12:12:20;;;;;;;1.97;1.87;;;29.90;67.90;;;;;;4990918;28;20568;-68
2023/08/01 12:14:45;;;;;;;2.00;1.90;;;29.00;71.20;;;;;;4992058;28;20880;-68
2023/08/01 12:17:11;;;;;;;2.33;2.10;;;29.80;70.30;;;;;;4991831;28;20214;-68
2023/08/01 12:19:36;;;;;;;4.03;1.40;;;30.60;68.80;;;;;;4990639;28;20211;-67
2023/08/01 12:22:02;;;;;;;2.07;1.97;;;30.00;67.60;;;;;;4992756;28;20208;-68
2023/08/01 12:24:27;;;;;;;1.90;1.80;;;29.50;69.20;;;;;;4992350;28;20532;-68
2023/08/01 12:26:53;;;;;;;3.63;1.60;;;28.00;71.80;;;;;;4991904;28;20215;-68
2023/08/01 12:29:18;;;;;;;5.00;1.80;;;28.80;72.60;;;;;;4990817;28;20175;-68
2023/08/01 12:31:45;;;;;;;2.10;1.90;;;29.10;69.40;;;;;;4992134;28;20612;-68
2023/08/01 12:34:11;;;;;;;2.43;2.23;;;28.70;71.10;;;;;;4983838;28;20211;-68
2023/08/01 12:36:36;;;;;;;2.00;1.80;;;29.40;73.30;;;;;;4991086;28;20494;-68
2023/08/01 12:39:02;;;;;;;2.10;1.90;;;31.50;65.60;;;;;;4988768;28;20182;-68
2023/08/01 12:41:28;;;;;;;1.80;1.67;;;33.60;61.50;;;;;;4989875;28;20657;-68